createdAt,value
2022-11-01T00:00:05.850Z,77.11
2022-11-01T00:01:09.886Z,76.69
2022-11-01T00:02:14.301Z,77.28
2022-11-01T00:03:18.207Z,77.27
2022-11-01T00:04:22.148Z,77.38
2022-11-01T00:05:25.989Z,77.22
2022-11-01T00:06:31.159Z,77.22
2022-11-01T00:07:35.093Z,77.22
2022-11-01T00:08:38.928Z,77.48
2022-11-01T00:09:42.782Z,77.54
2022-11-01T00:10:46.737Z,77.54
2022-11-01T00:11:50.912Z,77.75
2022-11-01T00:12:57.899Z,77.75
2022-11-01T00:14:01.884Z,77.69
2022-11-01T00:15:06.205Z,78.07
2022-11-01T00:16:15.002Z,78.07
2022-11-01T00:17:19.431Z,77.91
2022-11-01T00:18:23.349Z,78.10
2022-11-01T00:19:27.304Z,78.28
2022-11-01T00:20:31.247Z,78.22
2022-11-01T00:21:35.181Z,78.22
2022-11-01T00:22:39.110Z,78.22
2022-11-01T00:23:43.946Z,78.52
2022-11-01T00:24:47.823Z,78.92
2022-11-01T00:25:51.824Z,78.85
2022-11-01T00:26:55.785Z,78.67
2022-11-01T00:28:01.614Z,78.95
2022-11-01T00:29:05.929Z,79.15
2022-11-01T00:30:10.509Z,79.10
2022-11-01T00:31:18.696Z,79.00
2022-11-01T00:32:22.600Z,78.93
2022-11-01T00:33:26.992Z,79.12
2022-11-01T00:34:30.839Z,78.99
2022-11-01T00:35:35.938Z,79.40
2022-11-01T00:36:39.863Z,79.01
2022-11-01T00:37:43.713Z,79.41
2022-11-01T00:38:52.233Z,79.41
2022-11-01T00:39:56.565Z,79.29
2022-11-01T00:41:00.642Z,79.29
2022-11-01T00:42:04.556Z,79.73
2022-11-01T00:43:08.440Z,79.73
2022-11-01T00:44:13.538Z,79.74
2022-11-01T00:45:18.794Z,79.94
2022-11-01T00:46:22.717Z,80.27
2022-11-01T00:47:26.587Z,80.27
2022-11-01T00:48:30.698Z,80.04
2022-11-01T00:49:34.573Z,79.94
2022-11-01T00:50:39.153Z,80.36
2022-11-01T00:51:44.974Z,80.36
2022-11-01T00:52:48.625Z,80.55
2022-11-01T00:53:52.561Z,80.55
2022-11-01T00:54:56.514Z,80.50
2022-11-01T00:56:05.942Z,80.50
2022-11-01T00:57:11.048Z,80.85
2022-11-01T00:58:15.093Z,80.66
2022-11-01T00:59:18.944Z,80.64
2022-11-01T01:00:23.122Z,80.56
2022-11-01T01:01:28.632Z,80.56
2022-11-01T01:02:32.873Z,80.63
2022-11-01T01:03:38.695Z,80.92
2022-11-01T01:04:42.545Z,81.07
2022-11-01T01:05:48.313Z,81.17
2022-11-01T01:06:52.390Z,81.17
2022-11-01T01:07:57.954Z,81.20
2022-11-01T01:09:02.146Z,81.07
2022-11-01T01:10:07.220Z,81.05
2022-11-01T01:11:11.160Z,81.53
2022-11-01T01:12:15.006Z,81.33
2022-11-01T01:13:19.600Z,81.41
2022-11-01T01:14:24.351Z,81.60
2022-11-01T01:15:29.087Z,81.76
2022-11-01T01:16:33.149Z,81.53
2022-11-01T01:17:37.187Z,82.01
2022-11-01T01:18:41.085Z,82.03
2022-11-01T01:19:44.929Z,82.20
2022-11-01T01:20:48.929Z,82.13
2022-11-01T01:21:52.799Z,82.09
2022-11-01T01:22:56.666Z,82.09
2022-11-01T01:24:00.531Z,82.17
2022-11-01T01:25:04.594Z,82.39
2022-11-01T01:26:10.843Z,82.38
2022-11-01T01:27:20.786Z,82.43
2022-11-01T01:28:24.749Z,82.86
2022-11-01T01:29:28.735Z,82.65
2022-11-01T01:30:32.663Z,82.61
2022-11-01T01:31:36.517Z,82.78
2022-11-01T01:32:40.601Z,82.78
2022-11-01T01:33:44.559Z,82.92
2022-11-01T01:34:49.993Z,83.02
2022-11-01T01:35:53.934Z,83.06
2022-11-01T01:37:00.091Z,82.99
2022-11-01T01:38:05.737Z,82.94
2022-11-01T01:39:15.325Z,83.11
2022-11-01T01:40:18.662Z,83.06
2022-11-01T01:41:22.751Z,83.06
2022-11-01T01:42:32.123Z,83.36
2022-11-01T01:43:43.974Z,83.65
2022-11-01T01:44:50.917Z,83.64
2022-11-01T01:45:54.847Z,83.64
2022-11-01T01:46:58.868Z,84.12
2022-11-01T01:48:17.638Z,84.12
2022-11-01T01:49:21.548Z,83.88
2022-11-01T01:50:30.132Z,83.88
2022-11-01T01:51:34.146Z,84.34
2022-11-01T01:52:46.754Z,84.31
2022-11-01T01:53:53.813Z,84.55
2022-11-01T01:54:59.887Z,84.79
2022-11-01T01:56:09.590Z,84.89
2022-11-01T01:57:13.576Z,84.77
2022-11-01T01:58:20.750Z,85.00
2022-11-01T01:59:25.214Z,85.00
2022-11-01T02:00:29.690Z,85.28
2022-11-01T02:01:37.336Z,85.12
2022-11-01T02:02:42.858Z,85.08
2022-11-01T02:03:47.712Z,85.08
2022-11-01T02:04:57.330Z,85.19
2022-11-01T02:06:10.180Z,85.44
2022-11-01T02:07:14.299Z,85.83
2022-11-01T02:08:19.620Z,86.10
2022-11-01T02:09:26.903Z,86.10
2022-11-01T02:10:31.681Z,86.09
2022-11-01T02:11:35.709Z,86.06
2022-11-01T02:12:41.152Z,86.21
2022-11-01T02:13:47.538Z,86.19
2022-11-01T02:14:51.297Z,86.25
2022-11-01T02:16:12.860Z,86.48
2022-11-01T02:17:31.470Z,86.70
2022-11-01T02:18:50.284Z,86.57
2022-11-01T02:20:13.793Z,86.67
2022-11-01T02:21:28.478Z,86.90
2022-11-01T02:23:09.723Z,86.90
2022-11-01T02:24:41.883Z,87.04
2022-11-01T02:26:17.541Z,86.98
2022-11-01T02:27:40.912Z,87.56
2022-11-01T02:28:59.309Z,87.58
2022-11-01T02:30:08.079Z,87.72
2022-11-01T02:31:32.972Z,87.72
2022-11-01T02:32:39.825Z,87.57
2022-11-01T02:33:47.108Z,87.87
2022-11-01T02:35:16.738Z,88.23
2022-11-01T02:36:33.823Z,88.25
2022-11-01T02:37:49.618Z,88.34
2022-11-01T02:39:02.203Z,88.54
2022-11-01T02:40:11.743Z,88.48
2022-11-01T02:41:27.546Z,88.55
2022-11-01T02:42:34.468Z,88.49
2022-11-01T02:43:55.900Z,88.80
2022-11-01T02:45:09.994Z,88.82
2022-11-01T02:46:16.862Z,88.55
2022-11-01T02:47:21.169Z,88.55
2022-11-01T02:48:26.531Z,88.59
2022-11-01T02:49:36.224Z,88.66
2022-11-01T02:50:43.165Z,89.01
2022-11-01T02:51:48.833Z,89.10
2022-11-01T02:52:57.989Z,89.22
2022-11-01T02:54:09.256Z,89.30
2022-11-01T02:55:22.146Z,89.13
2022-11-01T02:56:26.127Z,89.31
2022-11-01T02:57:41.433Z,89.21
2022-11-01T02:58:48.042Z,89.42
2022-11-01T02:59:51.943Z,89.49
2022-11-01T03:00:56.022Z,89.45
2022-11-01T03:02:03.038Z,89.86
2022-11-01T03:03:25.058Z,89.77
2022-11-01T03:04:35.971Z,90.01
2022-11-01T03:05:55.826Z,90.17
2022-11-01T03:07:02.646Z,90.45
2022-11-01T03:08:10.759Z,90.37
2022-11-01T03:09:15.784Z,90.37
2022-11-01T03:10:23.094Z,90.78
2022-11-01T03:11:44.551Z,90.84
2022-11-01T03:12:53.938Z,90.78
2022-11-01T03:14:06.843Z,90.91
2022-11-01T03:15:13.744Z,91.03
2022-11-01T03:16:32.795Z,90.94
2022-11-01T03:17:45.566Z,91.06
2022-11-01T03:19:16.481Z,91.31
2022-11-01T03:20:31.902Z,91.38
2022-11-01T03:21:38.841Z,91.62
2022-11-01T03:22:45.848Z,91.95
2022-11-01T03:23:58.760Z,91.95
2022-11-01T03:25:05.835Z,91.77
2022-11-01T03:26:13.359Z,92.01
2022-11-01T03:27:29.368Z,92.19
2022-11-01T03:28:38.776Z,92.56
2022-11-01T03:29:47.726Z,92.49
2022-11-01T03:30:55.906Z,92.59
2022-11-01T03:32:01.868Z,92.34
2022-11-01T03:33:06.129Z,92.34
2022-11-01T03:34:15.704Z,92.66
2022-11-01T03:35:31.854Z,92.39
2022-11-01T03:36:41.453Z,92.30
2022-11-01T03:37:49.410Z,92.30
2022-11-01T03:39:02.114Z,92.40
2022-11-01T03:40:08.640Z,92.39
2022-11-01T03:41:17.840Z,92.84
2022-11-01T03:42:24.210Z,92.76
2022-11-01T03:43:31.538Z,92.78
2022-11-01T03:44:38.808Z,92.78
2022-11-01T03:45:44.552Z,93.02
2022-11-01T03:46:49.740Z,93.02
2022-11-01T03:47:53.788Z,92.64
2022-11-01T03:48:59.430Z,93.10
2022-11-01T03:50:18.479Z,92.86
2022-11-01T03:51:22.410Z,93.00
2022-11-01T03:52:26.362Z,93.06
2022-11-01T03:53:30.211Z,93.06
2022-11-01T03:54:34.210Z,93.20
2022-11-01T03:55:38.287Z,93.22
2022-11-01T03:56:42.325Z,93.07
2022-11-01T03:57:49.153Z,93.07
2022-11-01T03:58:54.646Z,92.82
2022-11-01T03:59:58.547Z,92.89
2022-11-01T04:01:07.455Z,93.01
2022-11-01T04:02:11.377Z,93.03
2022-11-01T04:03:15.320Z,92.92
2022-11-01T04:04:19.273Z,92.89
2022-11-01T04:05:25.116Z,92.59
2022-11-01T04:06:29.042Z,92.48
2022-11-01T04:07:32.870Z,92.54
2022-11-01T04:08:37.419Z,92.39
2022-11-01T04:09:43.047Z,92.21
2022-11-01T04:10:47.052Z,92.41
2022-11-01T04:11:50.965Z,92.29
2022-11-01T04:12:55.346Z,92.29
2022-11-01T04:13:59.260Z,92.38
2022-11-01T04:15:04.032Z,92.57
2022-11-01T04:16:11.341Z,92.68
2022-11-01T04:17:15.194Z,92.50
2022-11-01T04:18:24.085Z,92.46
2022-11-01T04:19:28.140Z,92.66
2022-11-01T04:20:32.870Z,92.78
2022-11-01T04:21:36.994Z,92.69
2022-11-01T04:22:41.010Z,92.79
2022-11-01T04:23:46.393Z,92.89
2022-11-01T04:24:52.028Z,92.76
2022-11-01T04:25:55.930Z,92.48
2022-11-01T04:26:59.892Z,92.27
2022-11-01T04:28:03.906Z,92.52
2022-11-01T04:29:07.768Z,92.12
2022-11-01T04:30:12.966Z,92.26
2022-11-01T04:31:16.990Z,92.56
2022-11-01T04:32:20.888Z,92.47
2022-11-01T04:33:24.857Z,92.58
2022-11-01T04:34:28.836Z,92.51
2022-11-01T04:35:32.698Z,92.51
2022-11-01T04:36:38.643Z,92.17
2022-11-01T04:37:42.511Z,92.11
2022-11-01T04:38:47.878Z,92.19
2022-11-01T04:39:51.757Z,92.11
2022-11-01T04:40:55.679Z,92.25
2022-11-01T04:41:59.712Z,92.05
2022-11-01T04:43:07.636Z,92.43
2022-11-01T04:44:11.677Z,92.26
2022-11-01T04:45:15.627Z,92.37
2022-11-01T04:46:19.826Z,92.55
2022-11-01T04:47:23.765Z,92.65
2022-11-01T04:48:32.886Z,92.95
2022-11-01T04:49:33.201Z,92.95
2022-11-01T04:50:37.146Z,92.81
2022-11-01T04:51:42.570Z,93.18
2022-11-01T04:52:48.626Z,93.02
2022-11-01T04:53:52.498Z,93.24
2022-11-01T04:54:56.456Z,93.57
2022-11-01T04:56:02.663Z,93.50
2022-11-01T04:57:06.533Z,93.50
2022-11-01T04:58:10.432Z,93.83
2022-11-01T04:59:14.439Z,93.55
2022-11-01T05:00:18.639Z,93.64
2022-11-01T05:01:22.613Z,93.12
2022-11-01T05:02:27.810Z,93.17
2022-11-01T05:03:31.797Z,93.49
2022-11-01T05:04:35.667Z,93.39
2022-11-01T05:05:40.688Z,93.29
2022-11-01T05:06:44.752Z,93.00
2022-11-01T05:07:48.787Z,92.67
2022-11-01T05:08:54.534Z,92.33
2022-11-01T05:09:58.620Z,92.16
2022-11-01T05:11:02.540Z,91.91
2022-11-01T05:12:07.999Z,91.50
2022-11-01T05:13:13.307Z,90.85
2022-11-01T05:14:18.728Z,90.69
2022-11-01T05:15:22.597Z,90.50
2022-11-01T05:16:26.686Z,90.18
2022-11-01T05:17:32.246Z,89.95
2022-11-01T05:18:36.216Z,89.51
2022-11-01T05:19:42.864Z,89.67
2022-11-01T05:20:46.838Z,89.01
2022-11-01T05:21:51.248Z,88.98
2022-11-01T05:23:01.296Z,88.55
2022-11-01T05:24:06.187Z,88.55
2022-11-01T05:25:10.203Z,87.92
2022-11-01T05:26:18.065Z,87.43
2022-11-01T05:27:22.015Z,87.25
2022-11-01T05:28:25.896Z,87.25
2022-11-01T05:29:33.316Z,86.71
2022-11-01T05:30:38.649Z,86.81
2022-11-01T05:31:42.585Z,86.36
2022-11-01T05:32:51.328Z,86.20
2022-11-01T05:33:52.023Z,86.41
2022-11-01T05:34:57.621Z,85.98
2022-11-01T05:36:02.112Z,85.98
2022-11-01T05:37:07.677Z,85.42
2022-11-01T05:38:11.540Z,85.49
2022-11-01T05:39:15.393Z,85.38
2022-11-01T05:40:19.772Z,85.38
2022-11-01T05:41:23.891Z,85.14
2022-11-01T05:42:28.018Z,85.14
2022-11-01T05:43:33.523Z,84.09
2022-11-01T05:44:38.990Z,83.87
2022-11-01T05:45:42.939Z,83.46
2022-11-01T05:46:46.923Z,83.46
2022-11-01T05:47:51.005Z,83.37
2022-11-01T05:48:55.111Z,83.71
2022-11-01T05:49:59.062Z,83.71
2022-11-01T05:51:03.207Z,83.31
2022-11-01T05:52:09.791Z,82.91
2022-11-01T05:53:13.868Z,83.13
2022-11-01T05:54:19.449Z,82.75
2022-11-01T05:55:23.443Z,82.75
2022-11-01T05:56:29.833Z,82.13
2022-11-01T05:57:33.978Z,81.82
2022-11-01T05:58:38.043Z,81.83
2022-11-01T05:59:43.640Z,81.21
2022-11-01T06:00:47.656Z,81.31
2022-11-01T06:01:53.390Z,81.73
2022-11-01T06:03:02.654Z,81.15
2022-11-01T06:04:13.582Z,80.98
2022-11-01T06:05:14.629Z,80.98
2022-11-01T06:06:22.911Z,80.84
2022-11-01T06:07:27.784Z,80.13
2022-11-01T06:08:35.366Z,80.47
2022-11-01T06:09:39.164Z,80.11
2022-11-01T06:10:44.926Z,80.05
2022-11-01T06:11:53.806Z,79.81
2022-11-01T06:12:58.060Z,80.31
2022-11-01T06:14:02.041Z,80.08
2022-11-01T06:15:06.657Z,80.10
2022-11-01T06:16:13.217Z,80.62
2022-11-01T06:17:17.174Z,80.26
2022-11-01T06:18:22.720Z,80.13
2022-11-01T06:19:31.153Z,79.27
2022-11-01T06:20:35.838Z,79.15
2022-11-01T06:21:42.568Z,79.60
2022-11-01T06:22:48.646Z,78.43
2022-11-01T06:23:52.530Z,78.46
2022-11-01T06:24:58.083Z,78.70
2022-11-01T06:26:03.775Z,78.40
2022-11-01T06:27:12.420Z,78.64
2022-11-01T06:28:13.739Z,77.82
2022-11-01T06:29:17.756Z,77.30
2022-11-01T06:30:26.921Z,76.77
2022-11-01T06:31:29.468Z,76.79
2022-11-01T06:32:33.617Z,76.79
2022-11-01T06:33:41.264Z,76.67
2022-11-01T06:34:45.276Z,76.65
2022-11-01T06:35:49.279Z,76.65
2022-11-01T06:36:55.818Z,76.61
2022-11-01T06:38:05.507Z,76.61
2022-11-01T06:39:11.112Z,76.93
2022-11-01T06:40:16.034Z,76.93
2022-11-01T06:41:20.181Z,76.84
2022-11-01T06:42:24.157Z,76.75
2022-11-01T06:43:40.887Z,76.82
2022-11-01T06:44:37.278Z,76.28
2022-11-01T06:45:41.425Z,76.28
2022-11-01T06:46:49.408Z,76.37
2022-11-01T06:47:55.089Z,76.18
2022-11-01T06:48:59.181Z,76.81
2022-11-01T06:50:04.077Z,76.81
2022-11-01T06:51:09.672Z,76.81
2022-11-01T06:52:15.180Z,75.58
2022-11-01T06:53:19.180Z,75.23
2022-11-01T06:54:24.771Z,76.29
2022-11-01T06:55:33.355Z,75.69
2022-11-01T06:56:37.360Z,76.40
2022-11-01T06:57:41.763Z,75.07
2022-11-01T06:58:48.522Z,75.06
2022-11-01T06:59:55.065Z,74.86
2022-11-01T07:01:07.807Z,74.86
2022-11-01T07:02:16.539Z,75.16
2022-11-01T07:03:23.450Z,74.51
2022-11-01T07:04:35.245Z,74.73
2022-11-01T07:05:50.469Z,74.73
2022-11-01T07:06:46.761Z,74.16
2022-11-01T07:07:50.773Z,73.89
2022-11-01T07:08:55.143Z,74.53
2022-11-01T07:09:59.059Z,75.24
2022-11-01T07:11:04.772Z,74.73
2022-11-01T07:12:10.548Z,73.71
2022-11-01T07:13:16.321Z,73.84
2022-11-01T07:14:21.890Z,73.96
2022-11-01T07:15:28.139Z,73.35
2022-11-01T07:16:33.880Z,73.37
2022-11-01T07:17:40.254Z,74.13
2022-11-01T07:18:44.317Z,73.38
2022-11-01T07:19:48.291Z,73.07
2022-11-01T07:20:52.391Z,72.79
2022-11-01T07:21:59.556Z,72.13
2022-11-01T07:23:06.308Z,72.64
2022-11-01T07:24:11.720Z,72.64
2022-11-01T07:25:18.359Z,72.87
2022-11-01T07:26:23.671Z,72.82
2022-11-01T07:27:27.705Z,72.65
2022-11-01T07:28:34.766Z,73.47
2022-11-01T07:29:38.689Z,73.33
2022-11-01T07:30:42.806Z,73.12
2022-11-01T07:31:47.150Z,72.98
2022-11-01T07:32:56.113Z,73.03
2022-11-01T07:34:00.439Z,72.54
2022-11-01T07:35:05.019Z,71.45
2022-11-01T07:36:10.067Z,71.62
2022-11-01T07:37:14.221Z,71.89
2022-11-01T07:38:22.722Z,71.25
2022-11-01T07:39:32.312Z,70.93
2022-11-01T07:40:40.073Z,71.12
2022-11-01T07:41:47.115Z,70.54
2022-11-01T07:42:52.773Z,70.54
2022-11-01T07:43:58.346Z,69.44
2022-11-01T07:45:05.287Z,69.44
2022-11-01T07:46:13.961Z,68.58
2022-11-01T07:47:19.660Z,68.58
2022-11-01T07:48:23.599Z,68.34
2022-11-01T07:49:29.698Z,67.61
2022-11-01T07:50:34.540Z,67.41
2022-11-01T07:51:41.924Z,67.02
2022-11-01T07:52:46.027Z,66.17
2022-11-01T07:53:50.154Z,65.62
2022-11-01T07:54:54.206Z,64.93
2022-11-01T07:55:59.908Z,65.21
2022-11-01T07:57:06.807Z,65.03
2022-11-01T07:58:11.660Z,65.46
2022-11-01T07:59:15.728Z,65.11
2022-11-01T08:00:19.916Z,64.61
2022-11-01T08:01:26.182Z,63.92
2022-11-01T08:02:34.632Z,63.45
2022-11-01T08:03:40.273Z,63.65
2022-11-01T08:04:44.332Z,63.82
2022-11-01T08:05:50.750Z,64.73
2022-11-01T08:06:54.793Z,63.57
2022-11-01T08:07:59.669Z,63.73
2022-11-01T08:09:03.975Z,64.50
2022-11-01T08:10:11.030Z,64.02
2022-11-01T08:11:17.603Z,63.52
2022-11-01T08:12:21.630Z,63.25
2022-11-01T08:13:28.222Z,63.84
2022-11-01T08:14:32.157Z,63.84
2022-11-01T08:15:36.213Z,62.79
2022-11-01T08:16:48.457Z,63.12
2022-11-01T08:17:51.503Z,62.47
2022-11-01T08:18:57.166Z,62.13
2022-11-01T08:20:02.691Z,62.12
2022-11-01T08:21:08.295Z,61.15
2022-11-01T08:22:12.318Z,61.97
2022-11-01T08:23:16.527Z,60.82
2022-11-01T08:24:20.511Z,61.07
2022-11-01T08:25:25.258Z,62.03
2022-11-01T08:26:32.007Z,61.85
2022-11-01T08:27:36.730Z,61.59
2022-11-01T08:28:40.820Z,61.27
2022-11-01T08:29:47.592Z,61.02
2022-11-01T08:30:53.296Z,61.27
2022-11-01T08:32:00.512Z,61.27
2022-11-01T08:33:06.001Z,61.63
2022-11-01T08:34:16.990Z,61.63
2022-11-01T08:35:19.423Z,61.47
2022-11-01T08:36:26.278Z,62.26
2022-11-01T08:37:33.103Z,61.42
2022-11-01T08:38:42.435Z,62.14
2022-11-01T08:39:48.011Z,61.82
2022-11-01T08:40:48.828Z,61.82
2022-11-01T08:41:54.561Z,62.45
2022-11-01T08:43:02.258Z,62.01
2022-11-01T08:44:09.808Z,61.12
2022-11-01T08:45:21.387Z,60.21
2022-11-01T08:46:25.563Z,60.21
2022-11-01T08:47:31.539Z,59.88
2022-11-01T08:49:27.383Z,60.19
2022-11-01T08:52:32.777Z,60.44
2022-11-01T08:53:29.161Z,59.48
2022-11-01T08:54:37.889Z,59.85
2022-11-01T08:55:44.263Z,59.85
2022-11-01T08:57:16.242Z,59.58
2022-11-01T08:59:08.134Z,60.16
2022-11-01T09:00:14.302Z,59.32
2022-11-01T09:29:29.503Z,57.79
2022-11-01T09:30:14.829Z,56.82
2022-11-01T09:31:22.079Z,56.82
2022-11-01T09:32:30.529Z,56.30
2022-11-01T09:33:37.692Z,56.30
2022-11-01T09:34:41.850Z,54.69
2022-11-01T09:35:50.821Z,54.30
2022-11-01T09:37:07.964Z,54.84
2022-11-01T09:38:04.432Z,54.84
2022-11-01T09:39:09.894Z,55.17
2022-11-01T09:40:16.743Z,55.17
2022-11-01T09:41:36.638Z,55.98
2022-11-01T09:42:43.751Z,55.90
2022-11-01T09:43:49.756Z,56.83
2022-11-01T09:44:58.302Z,56.83
2022-11-01T09:46:05.156Z,56.27
2022-11-01T09:47:14.856Z,56.94
2022-11-01T09:48:21.087Z,56.94
2022-11-01T09:49:30.823Z,55.83
2022-11-01T09:50:40.150Z,55.78
2022-11-01T09:51:45.833Z,56.34
2022-11-01T09:52:54.833Z,56.07
2022-11-01T09:54:01.481Z,57.12
2022-11-01T09:57:02.917Z,56.98
2022-11-01T09:58:11.114Z,55.94
2022-11-01T09:59:45.681Z,55.02
2022-11-01T10:01:09.132Z,54.36
2022-11-01T10:02:37.524Z,54.85
2022-11-01T10:03:54.392Z,54.34
2022-11-01T10:05:07.236Z,54.94
2022-11-01T10:06:17.997Z,51.93
2022-11-01T10:07:30.971Z,50.84
2022-11-01T10:08:57.366Z,50.63
2022-11-01T10:10:03.771Z,51.55
2022-11-01T10:11:10.788Z,51.49
2022-11-01T10:12:23.496Z,51.36
2022-11-01T10:13:56.041Z,51.11
2022-11-01T10:15:06.017Z,51.11
2022-11-01T10:16:20.471Z,52.02
2022-11-01T10:17:38.041Z,51.17
2022-11-01T10:18:46.720Z,51.72
2022-11-01T10:19:52.367Z,52.09
2022-11-01T10:21:09.876Z,49.77
2022-11-01T10:22:32.991Z,49.65
2022-11-01T10:23:53.288Z,50.65
2022-11-01T10:25:00.352Z,51.50
2022-11-01T10:26:09.920Z,51.35
2022-11-01T10:27:17.180Z,51.69
2022-11-01T10:28:29.603Z,50.93
2022-11-01T10:30:00.406Z,49.93
2022-11-01T10:31:08.830Z,50.87
2022-11-01T10:32:27.964Z,50.87
2022-11-01T10:33:57.106Z,50.50
2022-11-01T10:35:07.031Z,50.77
2022-11-01T10:36:16.942Z,50.54
2022-11-01T10:37:33.732Z,50.54
2022-11-01T10:40:04.630Z,49.80
2022-11-01T10:41:28.309Z,50.90
2022-11-01T10:42:33.730Z,50.58
2022-11-01T10:43:44.426Z,50.58
2022-11-01T10:44:59.109Z,49.35
2022-11-01T10:46:09.856Z,47.68
2022-11-01T10:47:17.047Z,47.68
2022-11-01T10:48:32.880Z,47.51
2022-11-01T10:51:07.828Z,47.81
2022-11-01T10:52:09.904Z,48.00
2022-11-01T10:53:18.558Z,47.68
2022-11-01T10:54:25.628Z,46.65
2022-11-01T10:55:52.930Z,46.53
2022-11-01T10:56:59.985Z,45.54
2022-11-01T10:59:46.621Z,44.02
2022-11-01T11:00:52.561Z,44.64
2022-11-01T11:02:00.833Z,43.13
2022-11-01T11:03:09.973Z,43.45
2022-11-01T11:04:19.421Z,43.82
2022-11-01T11:05:25.927Z,44.28
2022-11-01T11:06:44.954Z,43.77
2022-11-01T11:07:36.247Z,44.51
2022-11-01T11:08:46.088Z,44.57
2022-11-01T11:09:50.259Z,44.02
2022-11-01T11:10:57.448Z,44.02
2022-11-01T11:12:06.460Z,43.90
2022-11-01T11:13:13.410Z,44.60
2022-11-01T11:14:20.583Z,44.21
2022-11-01T11:15:36.677Z,44.10
2022-11-01T11:16:46.819Z,44.27
2022-11-01T11:17:53.810Z,43.16
2022-11-01T11:19:03.821Z,43.96
2022-11-01T11:20:10.609Z,43.96
2022-11-01T11:21:15.239Z,44.69
2022-11-01T11:22:23.137Z,43.65
2022-11-01T11:23:29.813Z,43.02
2022-11-01T11:24:40.910Z,43.67
2022-11-01T11:25:45.045Z,42.94
2022-11-01T11:26:54.251Z,42.94
2022-11-01T11:28:23.676Z,43.12
2022-11-01T11:29:14.058Z,43.84
2022-11-01T11:30:35.630Z,43.90
2022-11-01T11:31:42.779Z,43.89
2022-11-01T11:32:51.087Z,44.24
2022-11-01T11:34:21.984Z,44.36
2022-11-01T11:35:28.517Z,44.25
2022-11-01T11:36:41.964Z,44.25
2022-11-01T11:38:02.278Z,44.74
2022-11-01T11:39:06.155Z,44.75
2022-11-01T11:40:26.351Z,45.28
2022-11-01T11:41:35.366Z,45.28
2022-11-01T11:42:48.703Z,44.09
2022-11-01T11:45:21.937Z,44.07
2022-11-01T11:46:27.939Z,44.07
2022-11-01T11:47:41.316Z,43.33
2022-11-01T11:50:43.132Z,43.65
2022-11-01T11:51:41.299Z,43.42
2022-11-01T11:53:20.920Z,43.53
2022-11-01T11:54:07.306Z,43.35
2022-11-01T11:55:52.093Z,43.35
2022-11-01T11:57:18.477Z,43.33
2022-11-01T11:58:44.948Z,43.67
2022-11-01T11:59:54.675Z,44.23
2022-11-01T12:01:04.827Z,43.46
2022-11-01T12:02:21.587Z,43.40
2022-11-01T12:03:26.555Z,42.94
2022-11-01T12:04:48.345Z,43.36
2022-11-01T12:06:02.567Z,43.54
2022-11-01T12:07:07.069Z,43.20
2022-11-01T12:08:14.221Z,43.14
2022-11-01T12:09:54.750Z,43.30
2022-11-01T12:10:59.755Z,43.35
2022-11-01T12:12:09.547Z,41.83
2022-11-01T12:13:42.990Z,41.76
2022-11-01T12:14:43.873Z,40.67
2022-11-01T12:15:50.199Z,41.52
2022-11-01T12:16:55.904Z,41.52
2022-11-01T12:18:19.352Z,41.51
2022-11-01T12:19:32.680Z,40.12
2022-11-01T12:20:42.410Z,40.19
2022-11-01T12:21:49.744Z,40.19
2022-11-01T12:23:02.942Z,40.10
2022-11-01T12:24:19.099Z,39.87
2022-11-01T12:26:37.133Z,40.17
2022-11-01T12:27:06.005Z,39.87
2022-11-01T12:27:44.084Z,39.56
2022-11-01T12:29:02.962Z,40.04
2022-11-01T12:30:14.793Z,40.10
2022-11-01T12:31:21.979Z,40.10
2022-11-01T12:32:36.704Z,40.78
2022-11-01T12:33:51.798Z,40.10
2022-11-01T12:34:53.663Z,41.06
2022-11-01T12:35:59.574Z,41.11
2022-11-01T12:37:19.814Z,41.60
2022-11-01T12:38:41.687Z,41.08
2022-11-01T12:40:06.890Z,41.96
2022-11-01T12:41:31.946Z,42.02
2022-11-01T12:42:39.290Z,41.96
2022-11-01T12:44:35.559Z,41.96
2022-11-01T12:44:59.455Z,41.97
2022-11-01T12:46:14.184Z,41.97
2022-11-01T12:47:27.114Z,40.64
2022-11-01T12:48:35.653Z,40.67
2022-11-01T12:50:04.556Z,40.67
2022-11-01T12:51:20.581Z,41.29
2022-11-01T12:52:36.217Z,41.05
2022-11-01T12:53:52.007Z,42.16
2022-11-01T12:55:07.713Z,42.03
2022-11-01T12:56:20.288Z,42.80
2022-11-01T12:57:21.193Z,42.80
2022-11-01T12:58:36.023Z,40.94
2022-11-01T12:59:44.053Z,40.97
2022-11-01T13:01:28.957Z,41.53
2022-11-01T13:02:44.619Z,41.19
2022-11-01T13:03:54.505Z,41.51
2022-11-01T13:05:07.718Z,41.49
2022-11-01T13:06:37.570Z,41.95
2022-11-01T13:07:49.990Z,41.89
2022-11-01T13:09:21.170Z,41.90
2022-11-01T13:10:35.913Z,41.30
2022-11-01T13:12:04.141Z,42.23
2022-11-01T13:13:35.012Z,41.75
2022-11-01T13:14:46.839Z,41.75
2022-11-01T13:16:10.522Z,42.41
2022-11-01T13:17:26.533Z,42.41
2022-11-01T13:18:56.221Z,42.57
2022-11-01T13:20:21.213Z,41.68
2022-11-01T13:21:52.693Z,41.68
2022-11-01T13:23:19.241Z,41.58
2022-11-01T13:24:33.940Z,41.58
2022-11-01T13:25:40.925Z,41.90
2022-11-01T13:26:54.735Z,41.81
2022-11-01T13:28:07.480Z,42.75
2022-11-01T13:29:19.705Z,42.75
2022-11-01T13:30:24.366Z,42.75
2022-11-01T13:32:01.588Z,42.44
2022-11-01T13:33:14.358Z,42.54
2022-11-01T13:34:31.440Z,42.47
2022-11-01T13:35:44.366Z,42.88
2022-11-01T13:36:51.399Z,43.71
2022-11-01T13:37:58.535Z,42.89
2022-11-01T13:39:08.506Z,43.48
2022-11-01T13:40:27.458Z,43.14
2022-11-01T13:41:44.706Z,43.14
2022-11-01T13:42:57.287Z,43.58
2022-11-01T13:44:08.442Z,43.74
2022-11-01T13:45:30.578Z,43.56
2022-11-01T13:47:01.645Z,43.82
2022-11-01T13:48:26.289Z,44.03
2022-11-01T13:49:46.675Z,44.44
2022-11-01T13:51:12.876Z,44.89
2022-11-01T13:52:26.800Z,44.80
2022-11-01T13:53:50.948Z,44.65
2022-11-01T13:55:05.321Z,45.00
2022-11-01T13:56:15.962Z,44.01
2022-11-01T13:57:22.911Z,43.80
2022-11-01T13:58:27.271Z,44.35
2022-11-01T13:59:44.649Z,44.37
2022-11-01T14:00:53.522Z,44.03
2022-11-01T14:02:19.484Z,44.03
2022-11-01T14:03:33.500Z,45.36
2022-11-01T14:04:41.243Z,45.36
2022-11-01T14:05:48.980Z,44.48
2022-11-01T14:07:16.691Z,44.95
2022-11-01T14:08:28.950Z,44.95
2022-11-01T14:09:35.965Z,44.95
2022-11-01T14:10:49.799Z,44.71
2022-11-01T14:12:13.109Z,44.30
2022-11-01T14:13:22.682Z,43.22
2022-11-01T14:14:32.587Z,43.32
2022-11-01T14:15:52.313Z,42.66
2022-11-01T14:17:02.265Z,42.73
2022-11-01T14:18:16.377Z,42.21
2022-11-01T14:20:01.181Z,42.27
2022-11-01T14:20:31.101Z,42.57
2022-11-01T14:21:43.980Z,42.82
2022-11-01T14:22:47.910Z,43.46
2022-11-01T14:23:54.937Z,43.46
2022-11-01T14:25:01.959Z,43.47
2022-11-01T14:26:23.789Z,43.07
2022-11-01T14:27:36.064Z,42.77
2022-11-01T14:28:54.665Z,42.42
2022-11-01T14:29:56.590Z,42.57
2022-11-01T14:31:05.919Z,43.35
2022-11-01T14:33:22.160Z,42.73
2022-11-01T14:34:29.253Z,42.94
2022-11-01T14:35:37.692Z,42.59
2022-11-01T14:36:44.686Z,42.62
2022-11-01T14:37:51.762Z,42.60
2022-11-01T14:39:03.349Z,42.56
2022-11-01T14:40:27.029Z,42.77
2022-11-01T14:41:34.014Z,42.83
2022-11-01T14:42:43.545Z,42.71
2022-11-01T14:45:10.315Z,42.81
2022-11-01T14:46:27.732Z,42.67
2022-11-01T14:47:42.970Z,42.67
2022-11-01T14:48:57.587Z,42.66
2022-11-01T14:50:04.732Z,43.10
2022-11-01T14:51:25.897Z,43.10
2022-11-01T14:52:45.718Z,42.64
2022-11-01T14:53:50.306Z,42.88
2022-11-01T14:55:00.217Z,42.85
2022-11-01T14:56:10.021Z,42.85
2022-11-01T14:57:20.374Z,42.79
2022-11-01T14:58:24.826Z,42.54
2022-11-01T14:59:32.617Z,42.22
2022-11-01T15:00:39.093Z,42.25
2022-11-01T15:01:48.756Z,42.24
2022-11-01T15:04:07.132Z,43.06
2022-11-01T15:05:17.610Z,44.33
2022-11-01T15:06:24.369Z,45.42
2022-11-01T15:07:32.453Z,45.52
2022-11-01T15:08:45.398Z,45.57
2022-11-01T15:09:57.778Z,45.76
2022-11-01T15:11:04.486Z,46.65
2022-11-01T15:12:10.761Z,45.51
2022-11-01T15:13:19.440Z,45.83
2022-11-01T15:14:31.762Z,46.49
2022-11-01T15:15:40.564Z,45.96
2022-11-01T15:16:46.350Z,45.92
2022-11-01T15:17:59.386Z,45.92
2022-11-01T15:19:12.439Z,46.51
2022-11-01T15:20:19.683Z,46.26
2022-11-01T15:21:30.714Z,45.90
2022-11-01T15:22:34.418Z,45.47
2022-11-01T15:23:41.251Z,45.24
2022-11-01T15:24:48.034Z,44.97
2022-11-01T15:25:54.328Z,45.39
2022-11-01T15:27:08.037Z,45.11
2022-11-01T15:28:16.907Z,45.79
2022-11-01T15:29:25.595Z,45.78
2022-11-01T15:30:32.816Z,46.83